South Holland, Illinois
Current Conditions -  °F | °C
As of 11:55 AM on Monday 22 Dec 2014 (Local Time) from KIGQ Reporting Station
Light Rain Light Rain  
Wind Chill: 29°   Ceiling: 3100
Heat Index: 36°   Visibility: 5mi
Dew Point: 33°   Wind: 8mph
Humidity: 88%   Direction: 130°SE
Pressure: 29.82"   Gusts: NA
Location:  41.6°N, 87.61°W
Report Text: KIGQ 221755Z AUTO 13007KT 5SM -RA SCT026 BKN031 OVC049 02/00 A2982 RMK AO2 T00210003 10021 21004
Loading
Personal Weather Stations






























Interactive Weather Map New forecast layout! Learn more

10-Day Weather Forecast

Advertisements
Track Severe Weather on mobile